createdAt,value
2019-04-03T00:01:14.332Z,24.80
2019-04-03T00:03:42.829Z,25.00
2019-04-03T00:06:11.434Z,25.30
2019-04-03T00:08:40.018Z,25.20
2019-04-03T00:11:09.370Z,25.60
2019-04-03T00:13:41.464Z,25.60
2019-04-03T00:16:08.481Z,26.00
2019-04-03T00:18:36.931Z,25.90
2019-04-03T00:21:05.354Z,25.70
2019-04-03T00:23:33.902Z,26.00
2019-04-03T00:26:02.425Z,26.60
2019-04-03T00:28:30.876Z,26.90
2019-04-03T00:30:59.530Z,26.90
2019-04-03T00:33:27.950Z,26.80
2019-04-03T00:35:56.391Z,26.30
2019-04-03T00:38:24.822Z,26.60
2019-04-03T00:40:54.416Z,26.40
2019-04-03T00:43:24.777Z,27.10
2019-04-03T00:45:54.644Z,27.30
2019-04-03T00:48:25.288Z,27.20
2019-04-03T00:50:56.283Z,27.20
2019-04-03T00:53:23.974Z,27.40
2019-04-03T00:55:52.434Z,27.70
2019-04-03T00:58:39.590Z,28.00
2019-04-03T01:01:10.047Z,28.10
2019-04-03T01:03:39.413Z,28.10
2019-04-03T01:06:09.610Z,28.30
2019-04-03T01:08:38.251Z,27.90
2019-04-03T01:11:06.975Z,27.60
2019-04-03T01:13:37.407Z,27.90
2019-04-03T01:16:06.013Z,27.70
2019-04-03T01:18:35.417Z,27.90
2019-04-03T01:21:06.272Z,27.90
2019-04-03T01:23:37.026Z,27.90
2019-04-03T01:26:04.922Z,28.00
2019-04-03T01:28:33.342Z,28.10
2019-04-03T01:31:01.776Z,28.40
2019-04-03T01:33:30.268Z,28.90
2019-04-03T01:35:58.714Z,28.70
2019-04-03T01:38:28.742Z,28.60
2019-04-03T01:40:57.230Z,29.10
2019-04-03T01:43:25.690Z,29.60
2019-04-03T01:45:56.517Z,29.10
2019-04-03T01:48:24.331Z,29.00
2019-04-03T01:50:52.764Z,29.00
2019-04-03T01:53:21.214Z,29.00
2019-04-03T01:55:49.673Z,28.80
2019-04-03T01:58:18.185Z,28.90
2019-04-03T02:00:46.790Z,28.80
2019-04-03T02:03:15.305Z,28.80
2019-04-03T02:05:44.125Z,29.10
2019-04-03T02:08:14.012Z,29.20
2019-04-03T02:10:42.935Z,29.30
2019-04-03T02:13:11.378Z,29.30
2019-04-03T02:15:39.819Z,29.30
2019-04-03T02:18:08.281Z,29.30
2019-04-03T02:20:36.703Z,29.60
2019-04-03T02:23:05.215Z,29.30
2019-04-03T02:25:33.720Z,29.50
2019-04-03T02:28:04.028Z,29.40
2019-04-03T02:30:32.747Z,29.50
2019-04-03T02:33:01.340Z,29.50
2019-04-03T02:35:29.755Z,29.60
2019-04-03T02:37:58.204Z,30.20
2019-04-03T02:40:26.675Z,29.90
2019-04-03T02:42:55.598Z,30.30
2019-04-03T02:45:24.896Z,30.00
2019-04-03T02:47:53.458Z,29.80
2019-04-03T02:50:25.716Z,30.20
2019-04-03T02:52:58.179Z,30.20
2019-04-03T02:55:25.771Z,30.10
2019-04-03T02:57:54.351Z,30.00
2019-04-03T03:00:22.927Z,30.00
2019-04-03T03:02:51.434Z,30.00
2019-04-03T03:05:20.217Z,30.30
2019-04-03T03:07:49.011Z,31.40
2019-04-03T03:10:19.447Z,29.80
2019-04-03T03:12:48.496Z,29.90
2019-04-03T03:15:17.165Z,30.40
2019-04-03T03:17:46.307Z,31.20
2019-04-03T03:20:16.518Z,32.70
2019-04-03T03:22:49.642Z,33.70
2019-04-03T03:25:17.767Z,34.50
2019-04-03T03:27:47.658Z,35.60
2019-04-03T03:30:36.712Z,35.50
2019-04-03T03:32:47.037Z,39.00
2019-04-03T03:35:22.910Z,42.70
2019-04-03T03:37:46.385Z,47.00
2019-04-03T03:40:16.198Z,46.30
2019-04-03T03:42:45.380Z,43.60
2019-04-03T03:45:18.462Z,48.30
2019-04-03T03:47:44.788Z,51.90
2019-04-03T03:50:13.808Z,52.10
2019-04-03T03:52:42.890Z,52.30
2019-04-03T03:55:11.659Z,50.00
2019-04-03T03:57:41.134Z,50.40
2019-04-03T04:00:10.194Z,49.90
2019-04-03T04:02:43.095Z,50.00
2019-04-03T04:05:11.294Z,51.60
2019-04-03T04:07:39.650Z,53.50
2019-04-03T04:10:08.753Z,53.00
2019-04-03T04:12:41.317Z,52.90
2019-04-03T04:15:07.917Z,52.80
2019-04-03T04:17:36.916Z,52.50
2019-04-03T04:20:07.346Z,54.40
2019-04-03T04:22:37.470Z,56.10
2019-04-03T04:25:06.967Z,57.10
2019-04-03T04:27:37.902Z,60.00
2019-04-03T04:30:06.689Z,60.70
2019-04-03T04:32:35.210Z,60.90
2019-04-03T04:35:04.961Z,60.10
2019-04-03T04:37:33.402Z,60.40
2019-04-03T04:40:01.856Z,60.70
2019-04-03T04:42:30.359Z,61.00
2019-04-03T04:44:59.017Z,61.00
2019-04-03T04:47:27.607Z,61.00
2019-04-03T04:49:56.025Z,61.00
2019-04-03T04:52:27.127Z,60.90
2019-04-03T04:54:54.726Z,61.40
2019-04-03T04:57:23.168Z,61.40
2019-04-03T04:59:51.582Z,62.10
2019-04-03T05:02:20.495Z,61.10
2019-04-03T05:04:49.028Z,60.70
2019-04-03T05:07:17.539Z,61.10
2019-04-03T05:09:45.996Z,60.90
2019-04-03T05:12:14.401Z,60.30
2019-04-03T05:14:42.864Z,57.60
2019-04-03T05:17:11.282Z,58.20
2019-04-03T05:19:39.786Z,59.30
2019-04-03T05:22:08.272Z,58.60
2019-04-03T05:24:38.431Z,60.20
2019-04-03T05:27:07.844Z,60.20
2019-04-03T05:29:37.197Z,60.10
2019-04-03T05:32:05.716Z,60.00
2019-04-03T05:34:34.204Z,60.40
2019-04-03T05:37:02.948Z,60.40
2019-04-03T05:39:31.396Z,60.40
2019-04-03T05:42:00.447Z,58.80
2019-04-03T05:44:28.902Z,57.50
2019-04-03T05:46:59.488Z,58.40
2019-04-03T05:49:27.555Z,59.70
2019-04-03T05:51:55.995Z,60.10
2019-04-03T05:54:24.607Z,60.60
2019-04-03T05:56:53.204Z,60.30
2019-04-03T05:59:21.861Z,60.50
2019-04-03T06:01:50.286Z,61.10
2019-04-03T06:04:18.743Z,61.00
2019-04-03T06:06:47.364Z,61.00
2019-04-03T06:09:16.035Z,60.80
2019-04-03T06:11:46.114Z,60.80
2019-04-03T06:14:14.581Z,60.20
2019-04-03T06:16:43.002Z,59.80
2019-04-03T06:19:11.429Z,59.60
2019-04-03T06:21:39.886Z,58.80
2019-04-03T06:24:08.381Z,58.20
2019-04-03T06:26:37.800Z,51.70
2019-04-03T06:29:08.000Z,50.60
2019-04-03T06:31:36.817Z,47.40
2019-04-03T06:34:07.640Z,45.60
2019-04-03T06:36:36.678Z,47.80
2019-04-03T06:39:07.762Z,44.90
2019-04-03T06:41:36.374Z,44.80
2019-04-03T06:44:04.792Z,45.90
2019-04-03T06:46:33.317Z,45.10
2019-04-03T06:49:01.847Z,41.40
2019-04-03T06:51:30.290Z,40.60
2019-04-03T06:53:59.588Z,40.40
2019-04-03T06:56:28.474Z,41.50
2019-04-03T06:58:58.465Z,39.30
2019-04-03T07:01:26.886Z,37.50
2019-04-03T07:03:55.353Z,34.70
2019-04-03T07:06:24.012Z,32.60
2019-04-03T07:08:52.708Z,31.90
2019-04-03T07:11:23.545Z,31.40
2019-04-03T07:13:53.960Z,31.50
2019-04-03T07:16:22.075Z,30.70
2019-04-03T07:18:50.514Z,29.10
2019-04-03T07:21:18.944Z,29.60
2019-04-03T07:23:47.455Z,29.70
2019-04-03T07:26:15.871Z,30.00
2019-04-03T07:28:44.314Z,28.70
2019-04-03T07:31:13.142Z,28.80
2019-04-03T07:33:41.825Z,29.50
2019-04-03T07:36:11.580Z,28.80
2019-04-03T07:38:40.219Z,27.40
2019-04-03T07:41:08.779Z,27.90
2019-04-03T07:43:37.230Z,28.50
2019-04-03T07:46:05.727Z,27.90
2019-04-03T07:48:34.183Z,28.90
2019-04-03T07:51:02.617Z,28.00
2019-04-03T07:53:31.059Z,27.50
2019-04-03T07:55:59.538Z,27.90
2019-04-03T07:58:30.681Z,27.70
2019-04-03T08:00:58.720Z,27.20
2019-04-03T08:03:29.031Z,28.70
2019-04-03T08:05:57.499Z,28.60
2019-04-03T08:08:25.939Z,26.90
2019-04-03T08:10:54.379Z,25.90
2019-04-03T08:13:22.817Z,25.80
2019-04-03T08:15:51.282Z,25.80
2019-04-03T08:18:21.471Z,25.80
2019-04-03T08:20:49.975Z,26.10
2019-04-03T08:23:18.717Z,26.50
2019-04-03T08:25:49.219Z,26.50
2019-04-03T08:28:17.945Z,26.20
2019-04-03T08:30:46.760Z,25.60
2019-04-03T08:33:18.265Z,26.90
2019-04-03T08:35:45.542Z,26.90
2019-04-03T08:38:14.257Z,26.50
2019-04-03T08:40:44.824Z,28.00
2019-04-03T08:43:13.397Z,26.50
2019-04-03T08:45:41.833Z,27.20
2019-04-03T08:48:10.626Z,25.80
2019-04-03T08:50:39.103Z,26.20
2019-04-03T08:53:08.681Z,26.50
2019-04-03T08:55:37.383Z,26.40
2019-04-03T08:58:05.863Z,26.20
2019-04-03T09:00:34.313Z,25.70
2019-04-03T09:03:04.055Z,26.30
2019-04-03T09:05:32.967Z,28.20
2019-04-03T09:08:01.514Z,28.10
2019-04-03T09:10:31.817Z,27.30
2019-04-03T09:13:15.473Z,27.30
2019-04-03T09:15:33.040Z,27.60
2019-04-03T09:18:01.756Z,27.00
2019-04-03T09:20:30.266Z,25.90
2019-04-03T09:22:58.715Z,25.70
2019-04-03T09:25:27.253Z,26.30
2019-04-03T09:27:56.043Z,25.90
2019-04-03T09:30:25.202Z,26.50
2019-04-03T09:32:54.416Z,26.10
2019-04-03T09:35:23.287Z,25.40
2019-04-03T09:37:52.222Z,25.70
2019-04-03T09:40:20.759Z,25.30
2019-04-03T09:42:49.809Z,26.00
2019-04-03T09:45:19.411Z,26.00
2019-04-03T09:47:47.854Z,25.80
2019-04-03T09:50:16.616Z,26.20
2019-04-03T09:52:49.875Z,25.20
2019-04-03T09:55:16.807Z,26.40
2019-04-03T09:57:45.567Z,26.20
2019-04-03T10:00:15.350Z,25.50
2019-04-03T10:02:43.803Z,25.00
2019-04-03T10:05:12.862Z,24.90
2019-04-03T10:07:41.307Z,24.70
2019-04-03T10:10:09.975Z,24.40
2019-04-03T10:12:38.487Z,24.70
2019-04-03T10:15:07.902Z,23.90
2019-04-03T10:17:38.528Z,24.60
2019-04-03T10:20:09.013Z,24.30
2019-04-03T10:22:37.483Z,24.80
2019-04-03T10:25:07.658Z,24.70
2019-04-03T10:27:36.152Z,25.50
2019-04-03T10:30:10.679Z,25.80
2019-04-03T10:32:39.279Z,26.00
2019-04-03T10:35:08.252Z,25.70
2019-04-03T10:37:37.337Z,25.70
2019-04-03T10:40:07.934Z,25.50
2019-04-03T10:42:36.470Z,26.50
2019-04-03T10:45:07.154Z,26.90
2019-04-03T10:47:42.369Z,25.80
2019-04-03T10:50:09.705Z,26.40
2019-04-03T10:52:38.189Z,25.90
2019-04-03T10:55:07.981Z,25.10
2019-04-03T10:57:36.621Z,25.70
2019-04-03T11:00:12.723Z,25.70
2019-04-03T11:02:41.217Z,25.40
2019-04-03T11:05:10.824Z,25.80
2019-04-03T11:07:39.438Z,26.00
2019-04-03T11:10:10.190Z,27.20
2019-04-03T11:12:38.623Z,26.70
2019-04-03T11:15:10.538Z,26.00
2019-04-03T11:17:38.528Z,26.00
2019-04-03T11:20:09.747Z,25.40
2019-04-03T11:22:41.535Z,25.30
2019-04-03T11:25:13.884Z,25.40
2019-04-03T11:27:44.380Z,24.50
2019-04-03T11:30:17.345Z,24.60
2019-04-03T11:32:43.149Z,25.30
2019-04-03T11:35:11.760Z,25.50
2019-04-03T11:37:40.537Z,24.80
2019-04-03T11:40:10.046Z,25.50
2019-04-03T11:42:38.951Z,25.10
2019-04-03T11:45:08.388Z,24.80
2019-04-03T11:47:37.155Z,24.70
2019-04-03T11:50:08.051Z,25.50
2019-04-03T11:52:36.587Z,24.90
2019-04-03T11:55:10.945Z,25.00
2019-04-03T11:57:38.718Z,26.30
2019-04-03T12:00:11.782Z,25.10
2019-04-03T12:02:43.626Z,25.50
2019-04-03T12:05:10.930Z,25.80
2019-04-03T12:07:39.560Z,26.00
2019-04-03T12:10:08.722Z,26.30
2019-04-03T12:12:37.307Z,26.20
2019-04-03T12:15:07.550Z,24.30
2019-04-03T12:17:35.991Z,25.90
2019-04-03T12:20:09.205Z,25.00
2019-04-03T12:22:37.470Z,25.80
2019-04-03T12:25:07.162Z,27.40
2019-04-03T12:27:36.622Z,28.00
2019-04-03T12:30:10.388Z,26.30
2019-04-03T12:32:43.601Z,25.70
2019-04-03T12:35:11.021Z,26.30
2019-04-03T12:37:39.878Z,26.60
2019-04-03T12:40:09.335Z,26.00
2019-04-03T12:42:37.940Z,25.50
2019-04-03T12:45:08.539Z,25.80
2019-04-03T12:47:37.552Z,25.10
2019-04-03T12:50:07.658Z,24.50
2019-04-03T12:52:36.507Z,25.00
2019-04-03T12:55:06.978Z,23.80
2019-04-03T12:57:38.163Z,24.60
2019-04-03T13:00:10.560Z,25.20
2019-04-03T13:02:39.080Z,25.60
2019-04-03T13:05:08.348Z,24.50
2019-04-03T13:07:37.447Z,24.50
2019-04-03T13:10:08.537Z,25.50
2019-04-03T13:12:37.389Z,25.20
2019-04-03T13:15:10.485Z,24.50
2019-04-03T13:17:39.263Z,24.70
2019-04-03T13:20:08.638Z,24.20
2019-04-03T13:22:37.761Z,23.80
2019-04-03T13:25:09.019Z,23.00
2019-04-03T13:27:37.707Z,24.20
2019-04-03T13:30:11.493Z,24.30
2019-04-03T13:32:39.268Z,23.70
2019-04-03T13:35:09.147Z,24.60
2019-04-03T13:37:37.706Z,25.00
2019-04-03T13:40:07.496Z,24.00
2019-04-03T13:42:36.499Z,24.30
2019-04-03T13:45:07.493Z,24.20
2019-04-03T13:47:35.984Z,25.40
2019-04-03T13:50:07.746Z,25.50
2019-04-03T13:52:41.729Z,24.40
2019-04-03T13:55:07.566Z,23.90
2019-04-03T13:57:36.285Z,24.10
2019-04-03T14:00:19.180Z,23.50
2019-04-03T14:02:37.519Z,23.50
2019-04-03T14:05:07.776Z,22.90
2019-04-03T14:07:36.359Z,23.10
2019-04-03T14:10:10.133Z,22.90
2019-04-03T14:12:43.283Z,23.40
2019-04-03T14:15:09.695Z,23.40
2019-04-03T14:17:38.629Z,23.80
2019-04-03T14:20:08.311Z,23.50
2019-04-03T14:22:37.311Z,23.50
2019-04-03T14:25:18.467Z,23.30
2019-04-03T14:27:37.339Z,23.70
2019-04-03T14:30:11.622Z,23.90
2019-04-03T14:32:41.540Z,23.50
2019-04-03T14:35:40.440Z,23.20
2019-04-03T14:37:41.853Z,23.60
2019-04-03T14:40:12.906Z,24.30
2019-04-03T14:42:41.398Z,24.50
2019-04-03T14:45:13.369Z,24.30
2019-04-03T14:47:40.735Z,24.00
2019-04-03T14:50:10.111Z,24.10
2019-04-03T14:52:38.599Z,24.00
2019-04-03T14:55:18.021Z,23.60
2019-04-03T14:57:38.223Z,23.70
2019-04-03T15:00:23.027Z,23.50
2019-04-03T15:02:40.419Z,23.40
2019-04-03T15:05:09.878Z,23.80
2019-04-03T15:07:38.617Z,23.70
2019-04-03T15:10:07.735Z,24.30
2019-04-03T15:12:38.816Z,23.90
2019-04-03T15:15:09.471Z,24.10
2019-04-03T15:17:38.716Z,24.10
2019-04-03T15:20:09.473Z,23.40
2019-04-03T15:22:38.347Z,23.50
2019-04-03T15:25:08.992Z,23.60
2019-04-03T15:27:38.136Z,23.50
2019-04-03T15:30:11.824Z,23.30
2019-04-03T15:32:40.191Z,23.40
2019-04-03T15:35:10.303Z,23.50
2019-04-03T15:37:41.521Z,23.40
2019-04-03T15:40:09.272Z,23.30
2019-04-03T15:42:41.265Z,23.00
2019-04-03T15:45:10.572Z,23.00
2019-04-03T15:47:44.825Z,22.80
2019-04-03T15:50:11.206Z,23.00
2019-04-03T15:52:39.723Z,23.00
2019-04-03T15:55:09.003Z,22.50
2019-04-03T15:57:39.764Z,22.70
2019-04-03T16:00:11.018Z,22.80
2019-04-03T16:02:39.710Z,22.90
2019-04-03T16:05:08.630Z,22.80
2019-04-03T16:07:40.464Z,23.30
2019-04-03T16:10:07.731Z,23.00
2019-04-03T16:12:38.355Z,23.00
2019-04-03T16:15:09.208Z,23.00
2019-04-03T16:17:38.512Z,22.90
2019-04-03T16:20:09.640Z,22.90
2019-04-03T16:22:38.253Z,23.20
2019-04-03T16:25:08.047Z,23.00
2019-04-03T16:27:37.430Z,23.30
2019-04-03T16:30:09.555Z,23.30
2019-04-03T16:32:38.945Z,23.00
2019-04-03T16:35:08.096Z,23.00
2019-04-03T16:37:37.203Z,24.60
2019-04-03T16:40:08.054Z,26.20
2019-04-03T16:42:37.049Z,28.50
2019-04-03T16:45:12.054Z,29.20
2019-04-03T16:47:43.982Z,30.40
2019-04-03T16:50:13.300Z,31.30
2019-04-03T16:52:42.257Z,31.20
2019-04-03T16:55:11.818Z,31.00
2019-04-03T16:57:40.533Z,30.70
2019-04-03T17:00:10.413Z,32.50
2019-04-03T17:02:41.442Z,33.30
2019-04-03T17:05:12.091Z,33.80
2019-04-03T17:07:41.780Z,34.10
2019-04-03T17:10:10.896Z,31.10
2019-04-03T17:12:41.208Z,31.60
2019-04-03T17:15:11.923Z,30.50
2019-04-03T17:17:43.150Z,30.00
2019-04-03T17:20:13.016Z,30.00
2019-04-03T17:22:41.874Z,30.70
2019-04-03T17:25:11.866Z,31.50
2019-04-03T17:27:53.546Z,31.30
2019-04-03T17:30:11.357Z,29.20
2019-04-03T17:32:40.052Z,29.00
2019-04-03T17:35:08.998Z,28.90
2019-04-03T17:37:37.665Z,28.90
2019-04-03T17:40:11.447Z,28.50
2019-04-03T17:42:40.214Z,28.80
2019-04-03T17:45:09.717Z,61.70
2019-04-03T17:47:38.204Z,62.10
2019-04-03T17:50:08.415Z,62.60
2019-04-03T17:52:38.543Z,62.80
2019-04-03T17:55:11.190Z,63.20
2019-04-03T17:57:40.002Z,64.20
2019-04-03T18:00:14.247Z,66.30
2019-04-03T18:02:42.772Z,67.40
2019-04-03T18:05:11.631Z,68.60
2019-04-03T18:07:40.155Z,68.20
2019-04-03T18:10:12.462Z,68.40
2019-04-03T18:12:39.320Z,69.80
2019-04-03T18:15:09.452Z,70.10
2019-04-03T18:17:37.868Z,70.90
2019-04-03T18:20:08.146Z,70.30
2019-04-03T18:22:36.577Z,70.20
2019-04-03T18:25:08.209Z,70.60
2019-04-03T18:27:37.199Z,70.50
2019-04-03T18:30:11.318Z,70.60
2019-04-03T18:32:40.074Z,70.50
2019-04-03T18:35:09.982Z,69.60
2019-04-03T18:37:41.059Z,70.40
2019-04-03T18:40:14.238Z,69.90
2019-04-03T18:42:41.275Z,69.20
2019-04-03T18:45:24.184Z,70.00
2019-04-03T18:47:43.915Z,69.90
2019-04-03T18:50:12.085Z,70.40
2019-04-03T18:52:42.177Z,70.00
2019-04-03T18:55:13.986Z,71.00
2019-04-03T18:57:41.063Z,70.70
2019-04-03T19:00:10.315Z,70.70
2019-04-03T19:02:40.562Z,70.70
2019-04-03T19:05:13.627Z,70.20
2019-04-03T19:07:39.998Z,70.70
2019-04-03T19:10:09.202Z,73.20
2019-04-03T19:12:39.174Z,72.30
2019-04-03T19:15:08.321Z,72.40
2019-04-03T19:17:36.882Z,71.40
2019-04-03T19:20:11.020Z,71.50
2019-04-03T19:22:39.656Z,70.30
2019-04-03T19:25:08.341Z,71.70
2019-04-03T19:27:38.312Z,71.90
2019-04-03T19:30:07.959Z,71.70
2019-04-03T19:32:36.958Z,71.30
2019-04-03T19:35:09.455Z,71.10
2019-04-03T19:37:37.811Z,71.20
2019-04-03T19:40:09.435Z,70.70
2019-04-03T19:42:37.368Z,70.50
2019-04-03T19:45:08.018Z,70.90
2019-04-03T19:47:36.538Z,71.30
2019-04-03T19:50:07.320Z,71.00
2019-04-03T19:52:37.226Z,71.30
2019-04-03T19:55:07.682Z,70.60
2019-04-03T19:57:36.157Z,69.50
2019-04-03T20:00:06.675Z,69.70
2019-04-03T20:02:37.812Z,69.60
2019-04-03T20:05:06.951Z,70.40
2019-04-03T20:07:35.403Z,71.80
2019-04-03T20:10:06.019Z,71.40
2019-04-03T20:12:35.839Z,71.90
2019-04-03T20:15:06.871Z,71.40
2019-04-03T20:17:35.355Z,72.20
2019-04-03T20:20:05.882Z,71.50
2019-04-03T20:25:05.629Z,71.40
2019-04-03T20:27:35.738Z,70.70
2019-04-03T20:30:08.783Z,70.60
2019-04-03T20:32:40.053Z,69.30
2019-04-03T20:35:07.978Z,69.70
2019-04-03T20:37:36.405Z,69.80
2019-04-03T20:40:07.461Z,69.50
2019-04-03T20:42:36.044Z,69.20
2019-04-03T20:45:07.019Z,69.10
2019-04-03T20:47:35.547Z,68.60
2019-04-03T20:50:07.730Z,68.70
2019-04-03T20:52:37.796Z,68.20
2019-04-03T20:55:08.786Z,68.70
2019-04-03T20:57:37.285Z,69.20
2019-04-03T21:00:08.870Z,68.60
2019-04-03T21:02:37.431Z,69.10
2019-04-03T21:05:07.940Z,68.80
2019-04-03T21:07:38.147Z,69.10
2019-04-03T21:10:09.757Z,69.60
2019-04-03T21:12:38.258Z,69.00
2019-04-03T21:15:09.181Z,68.50
2019-04-03T21:17:38.054Z,69.40
2019-04-03T21:20:07.255Z,68.50
2019-04-03T21:22:35.734Z,68.40
2019-04-03T21:25:06.121Z,67.80
2019-04-03T21:27:34.722Z,68.50
2019-04-03T21:30:06.258Z,68.70
2019-04-03T21:32:34.683Z,68.30
2019-04-03T21:35:04.350Z,68.50
2019-04-03T21:37:34.547Z,68.00
2019-04-03T21:40:04.842Z,67.90
2019-04-03T21:42:33.355Z,68.20
2019-04-03T21:45:02.700Z,67.90
2019-04-03T21:47:32.023Z,67.50
2019-04-03T21:50:03.435Z,67.20
2019-04-03T21:52:30.617Z,67.70
2019-04-03T21:54:59.105Z,67.60
2019-04-03T21:57:27.703Z,67.00
2019-04-03T21:59:57.785Z,66.70
2019-04-03T22:02:26.279Z,66.50
2019-04-03T22:04:54.708Z,67.30
2019-04-03T22:07:23.141Z,67.20
2019-04-03T22:09:51.553Z,67.40
2019-04-03T22:12:19.998Z,66.70
2019-04-03T22:14:48.411Z,66.70
2019-04-03T22:17:16.855Z,66.40
2019-04-03T22:19:46.802Z,66.50
2019-04-03T22:22:15.322Z,65.70
2019-04-03T22:24:43.808Z,65.20
2019-04-03T22:27:14.005Z,65.70
2019-04-03T22:29:42.414Z,66.00
2019-04-03T22:32:10.848Z,64.90
2019-04-03T22:34:39.274Z,65.80
2019-04-03T22:37:07.714Z,66.20
2019-04-03T22:39:38.717Z,65.30
2019-04-03T22:42:06.411Z,65.50
2019-04-03T22:44:34.843Z,65.30
2019-04-03T22:47:03.254Z,65.70
2019-04-03T22:49:33.749Z,65.20
2019-04-03T22:52:01.829Z,65.60
2019-04-03T22:54:30.341Z,65.90
2019-04-03T22:56:58.758Z,66.30
2019-04-03T22:59:27.219Z,66.10
2019-04-03T23:01:55.694Z,66.40
2019-04-03T23:04:24.145Z,66.60
2019-04-03T23:06:52.560Z,66.80
2019-04-03T23:09:21.004Z,66.50
2019-04-03T23:11:49.544Z,66.70
2019-04-03T23:14:17.982Z,66.80
2019-04-03T23:16:46.409Z,66.90
2019-04-03T23:19:17.969Z,66.40
2019-04-03T23:21:46.538Z,66.50
2019-04-03T23:24:14.989Z,66.90
2019-04-03T23:26:43.498Z,66.80
2019-04-03T23:29:13.499Z,66.60
2019-04-03T23:31:44.652Z,66.30
2019-04-03T23:34:12.175Z,67.40
2019-04-03T23:36:42.117Z,67.50
2019-04-03T23:39:10.632Z,66.90
2019-04-03T23:41:40.596Z,67.10
2019-04-03T23:44:11.111Z,67.00
2019-04-03T23:46:39.363Z,67.70
2019-04-03T23:49:07.877Z,67.60
2019-04-03T23:51:36.370Z,67.50
2019-04-03T23:54:04.963Z,66.80
2019-04-03T23:56:35.205Z,67.70
2019-04-03T23:59:03.892Z,67.60
